Time;durP1;ratioP1;P1;durP2;ratioP2;P2;SDS_P1;SDS_P2;PMS_P1;PMS_P2;Temp;Humidity;BMP_temperature;BMP_pressure;BME280_temperature;BME280_humidity;BME280_pressure;Samples;Min_cycle;Max_cycle;Signal;HPM_P1;HPM_P2
2022/08/19 00:01:21;;;;;;;1.70;1.57;;;17.30;99.90;;;;;;5093247;28;20411;-70
2022/08/19 00:03:47;;;;;;;1.77;1.67;;;17.20;99.90;;;;;;5093281;28;20446;-70
2022/08/19 00:06:13;;;;;;;2.90;1.37;;;17.30;99.90;;;;;;5092979;28;20452;-69
2022/08/19 00:08:39;;;;;;;1.70;1.60;;;17.30;99.90;;;;;;5092837;28;20442;-70
2022/08/19 00:11:05;;;;;;;1.23;1.07;;;17.30;99.90;;;;;;5093023;28;20808;-70
2022/08/19 00:13:31;;;;;;;0.67;0.67;;;17.40;99.90;;;;;;5093184;28;20209;-70
2022/08/19 00:15:58;;;;;;;1.13;1.03;;;17.30;99.90;;;;;;5074971;28;20439;-70
2022/08/19 00:18:25;;;;;;;2.67;2.40;;;17.30;99.90;;;;;;5092717;28;20429;-70
2022/08/19 00:20:51;;;;;;;0.50;0.50;;;17.30;99.90;;;;;;5092894;28;20403;-70
2022/08/19 00:23:16;;;;;;;1.43;1.33;;;17.20;99.90;;;;;;5093559;28;20468;-70
2022/08/19 00:25:42;;;;;;;2.37;1.60;;;17.20;99.90;;;;;;5096709;28;20187;-69
2022/08/19 00:28:08;;;;;;;1.57;1.13;;;17.20;99.90;;;;;;5096291;28;20524;-70
2022/08/19 00:30:34;;;;;;;1.60;1.50;;;17.30;99.90;;;;;;5078363;28;20196;-69
2022/08/19 00:32:59;;;;;;;4.30;3.27;;;17.40;99.90;;;;;;5096544;28;20763;-69
2022/08/19 00:35:27;;;;;;;0.57;0.57;;;17.40;99.90;;;;;;5078304;28;20168;-70
2022/08/19 00:37:53;;;;;;;1.70;1.60;;;17.40;99.90;;;;;;5096196;28;20189;-69
2022/08/19 00:40:20;;;;;;;1.43;1.20;;;17.30;99.90;;;;;;5096273;28;20422;-69
2022/08/19 00:42:46;;;;;;;1.63;1.40;;;17.30;99.90;;;;;;5096237;28;20443;-68
2022/08/19 00:45:16;;;;;;;1.60;1.50;;;17.30;99.90;;;;;;5078098;28;20399;-69
2022/08/19 00:47:42;;;;;;;2.90;1.47;;;17.20;99.90;;;;;;5077724;28;20804;-69
2022/08/19 00:50:09;;;;;;;1.27;1.10;;;17.20;99.90;;;;;;5077994;28;20781;-69
2022/08/19 00:52:45;;;;;;;0.70;0.70;;;17.20;99.90;;;;;;5096192;28;20903;-70
2022/08/19 00:55:15;;;;;;;1.63;1.23;;;17.20;99.90;;;;;;5095942;28;20395;-69
2022/08/19 00:57:45;;;;;;;1.27;1.17;;;17.20;99.90;;;;;;5095695;28;20418;-69
2022/08/19 01:00:14;;;;;;;0.93;0.87;;;17.20;99.90;;;;;;5096135;28;20411;-68
2022/08/19 01:02:41;;;;;;;1.50;1.33;;;17.20;99.90;;;;;;5095667;28;20462;-70
2022/08/19 01:05:12;;;;;;;1.00;1.00;;;17.10;99.90;;;;;;5095760;28;20391;-69
2022/08/19 01:07:40;;;;;;;3.43;1.60;;;17.10;99.90;;;;;;5095633;28;20435;-69
2022/08/19 01:10:10;;;;;;;1.43;1.33;;;17.20;99.90;;;;;;5095758;28;20395;-69
2022/08/19 01:12:37;;;;;;;2.87;1.53;;;17.20;99.90;;;;;;5095989;28;20507;-70
2022/08/19 01:15:06;;;;;;;1.23;1.13;;;17.30;99.90;;;;;;5095734;28;20402;-69
2022/08/19 01:17:33;;;;;;;1.80;1.67;;;17.30;99.90;;;;;;5095598;28;20427;-69
2022/08/19 01:19:59;;;;;;;2.23;2.10;;;17.30;99.90;;;;;;5095460;28;20399;-69
2022/08/19 01:22:42;;;;;;;1.30;1.20;;;17.30;99.90;;;;;;5095327;28;20808;-69
2022/08/19 01:25:08;;;;;;;1.40;1.30;;;17.30;99.90;;;;;;5095657;28;20656;-69
2022/08/19 01:27:40;;;;;;;5.37;2.23;;;17.20;99.90;;;;;;5095267;28;20427;-70
2022/08/19 01:30:07;;;;;;;2.67;1.50;;;17.20;99.90;;;;;;5095445;28;20549;-69
2022/08/19 01:32:33;;;;;;;1.83;1.73;;;17.20;99.90;;;;;;5095258;28;20405;-70
2022/08/19 01:35:01;;;;;;;1.33;1.23;;;17.20;99.90;;;;;;5094393;28;20411;-69
2022/08/19 01:37:27;;;;;;;1.77;1.67;;;17.20;99.90;;;;;;5095553;28;20189;-70
2022/08/19 01:39:53;;;;;;;2.47;2.27;;;17.20;99.90;;;;;;5095113;28;20407;-70
2022/08/19 01:42:19;;;;;;;2.53;2.33;;;17.20;99.90;;;;;;5094910;28;20181;-69
2022/08/19 01:44:45;;;;;;;1.30;1.30;;;17.20;99.90;;;;;;5095237;28;20480;-70
2022/08/19 01:47:10;;;;;;;2.83;1.47;;;17.20;99.90;;;;;;5094901;28;20427;-70
2022/08/19 01:49:37;;;;;;;2.87;1.50;;;17.10;99.90;;;;;;5076654;28;20442;-70
2022/08/19 01:52:04;;;;;;;3.10;1.83;;;17.10;99.90;;;;;;5095089;28;20275;-70
2022/08/19 01:54:31;;;;;;;2.40;2.30;;;17.10;99.90;;;;;;5094984;28;20406;-69
2022/08/19 01:57:10;;;;;;;1.33;1.23;;;17.10;99.90;;;;;;5094853;28;20766;-70
2022/08/19 01:59:36;;;;;;;2.60;2.40;;;17.00;99.90;;;;;;5094700;28;20883;-70
2022/08/19 02:02:07;;;;;;;2.00;1.53;;;17.10;99.90;;;;;;5094580;28;20426;-69
2022/08/19 02:04:33;;;;;;;1.17;1.10;;;17.10;99.90;;;;;;5094804;28;20464;-70
2022/08/19 02:06:59;;;;;;;1.80;1.67;;;17.10;99.90;;;;;;5094838;28;20415;-69
2022/08/19 02:09:25;;;;;;;1.20;1.10;;;17.10;99.90;;;;;;5094366;28;20403;-70
2022/08/19 02:11:51;;;;;;;1.13;0.90;;;17.20;99.90;;;;;;5094734;28;20390;-69
2022/08/19 02:14:16;;;;;;;1.93;1.83;;;17.20;99.90;;;;;;5094514;28;20195;-70
2022/08/19 02:16:42;;;;;;;1.50;1.27;;;17.20;99.90;;;;;;5094457;28;20200;-69
2022/08/19 02:19:08;;;;;;;1.90;1.80;;;17.20;99.90;;;;;;5094301;28;20177;-70
2022/08/19 02:21:34;;;;;;;1.70;1.60;;;17.30;99.90;;;;;;5094490;28;20165;-69
2022/08/19 02:24:00;;;;;;;1.80;1.60;;;17.30;99.90;;;;;;5094415;28;20202;-70
2022/08/19 02:26:26;;;;;;;3.23;1.73;;;17.30;99.90;;;;;;5094426;28;20406;-69
2022/08/19 02:28:54;;;;;;;1.47;0.83;;;17.30;99.90;;;;;;5094091;28;20169;-69
2022/08/19 02:31:21;;;;;;;1.80;1.70;;;17.40;99.90;;;;;;5076107;28;20412;-69
2022/08/19 02:33:47;;;;;;;2.03;1.87;;;17.40;99.90;;;;;;5094230;28;20405;-70
2022/08/19 02:36:15;;;;;;;1.43;1.33;;;17.40;99.90;;;;;;5094169;28;20414;-70
2022/08/19 02:38:41;;;;;;;1.53;1.43;;;17.40;99.90;;;;;;5093855;28;20449;-70
2022/08/19 02:41:16;;;;;;;2.97;2.77;;;17.40;99.90;;;;;;5094002;28;20430;-69
2022/08/19 02:43:42;;;;;;;1.40;1.30;;;17.40;99.90;;;;;;5093887;28;20446;-69
2022/08/19 02:46:12;;;;;;;1.33;1.23;;;17.40;99.90;;;;;;5093823;28;20909;-69
2022/08/19 02:48:37;;;;;;;2.77;1.80;;;17.30;99.90;;;;;;5093542;28;20423;-70
2022/08/19 02:51:03;;;;;;;3.73;1.60;;;17.30;99.90;;;;;;5093549;28;20411;-70
2022/08/19 02:53:29;;;;;;;2.47;2.27;;;17.30;99.90;;;;;;5093599;28;20188;-70
2022/08/19 02:55:55;;;;;;;2.77;1.00;;;17.30;99.90;;;;;;5093721;28;20544;-69
2022/08/19 02:58:21;;;;;;;2.63;2.40;;;17.40;99.90;;;;;;5093664;28;20193;-69
2022/08/19 03:00:51;;;;;;;2.13;1.90;;;17.40;99.90;;;;;;5093958;28;20176;-69
2022/08/19 03:03:18;;;;;;;1.50;1.23;;;17.50;99.90;;;;;;5093498;28;20466;-69
2022/08/19 03:05:44;;;;;;;2.80;1.47;;;17.40;99.90;;;;;;5093543;28;20831;-69
2022/08/19 03:08:12;;;;;;;1.80;1.60;;;17.40;99.90;;;;;;5093427;28;20466;-69
2022/08/19 03:10:44;;;;;;;1.70;1.60;;;17.40;99.90;;;;;;5093656;28;20399;-70
2022/08/19 03:13:11;;;;;;;1.17;1.03;;;17.40;99.90;;;;;;5093818;28;20611;-70
2022/08/19 03:15:45;;;;;;;1.90;1.80;;;17.40;99.90;;;;;;5093770;28;20410;-70
2022/08/19 03:18:11;;;;;;;1.67;1.07;;;17.40;99.90;;;;;;5093178;28;20797;-70
2022/08/19 03:20:46;;;;;;;1.40;0.80;;;17.40;99.90;;;;;;5093506;28;20451;-69
2022/08/19 03:23:12;;;;;;;3.20;2.10;;;17.40;99.90;;;;;;5093637;28;20454;-70
2022/08/19 03:25:42;;;;;;;4.17;2.63;;;17.40;99.90;;;;;;5093555;28;20426;-70
2022/08/19 03:28:09;;;;;;;1.93;1.83;;;17.40;99.90;;;;;;5093604;28;20440;-70
2022/08/19 03:30:35;;;;;;;1.57;1.47;;;17.40;99.90;;;;;;5093585;28;20407;-69
2022/08/19 03:33:01;;;;;;;1.00;1.00;;;17.40;99.90;;;;;;5093646;28;20962;-69
2022/08/19 03:35:27;;;;;;;2.70;1.03;;;17.50;99.90;;;;;;5093654;28;20176;-70
2022/08/19 03:37:53;;;;;;;1.90;1.73;;;17.50;99.90;;;;;;5093261;28;20443;-70
2022/08/19 03:40:18;;;;;;;1.63;1.03;;;17.60;99.90;;;;;;5093482;28;20398;-69
2022/08/19 03:42:46;;;;;;;1.43;1.00;;;17.60;99.90;;;;;;5075344;28;20200;-70
2022/08/19 03:45:11;;;;;;;1.23;1.13;;;17.60;99.90;;;;;;5093443;28;20173;-70
2022/08/19 03:47:37;;;;;;;1.43;1.30;;;17.60;99.90;;;;;;5092902;28;20427;-69
2022/08/19 03:50:04;;;;;;;2.87;1.70;;;17.50;99.90;;;;;;5093197;28;20625;-70
2022/08/19 03:52:30;;;;;;;1.73;1.63;;;17.50;99.90;;;;;;5093337;28;20406;-70
2022/08/19 03:54:56;;;;;;;1.80;1.30;;;17.60;99.90;;;;;;5093422;28;20411;-70
2022/08/19 03:57:21;;;;;;;1.37;1.30;;;17.60;99.90;;;;;;5093102;28;20437;-70
2022/08/19 03:59:47;;;;;;;1.13;1.13;;;17.60;99.90;;;;;;5096260;28;20169;-70
2022/08/19 04:02:13;;;;;;;2.97;1.70;;;17.60;99.90;;;;;;5096867;28;20202;-70
2022/08/19 04:04:42;;;;;;;2.63;1.63;;;17.60;99.90;;;;;;5097228;28;20242;-69
2022/08/19 04:07:09;;;;;;;1.30;1.30;;;17.70;99.90;;;;;;5096955;28;20242;-69
2022/08/19 04:09:36;;;;;;;5.13;2.73;;;17.70;99.90;;;;;;5096815;28;20759;-69
2022/08/19 04:12:03;;;;;;;3.50;2.67;;;17.70;99.90;;;;;;5097047;28;20409;-69
2022/08/19 04:14:30;;;;;;;1.37;1.27;;;17.70;99.90;;;;;;5096739;28;20959;-69
2022/08/19 04:16:56;;;;;;;2.70;2.50;;;17.70;99.90;;;;;;5096867;28;20426;-70
2022/08/19 04:19:23;;;;;;;2.23;1.60;;;17.70;99.90;;;;;;5096624;28;20436;-69
2022/08/19 04:21:51;;;;;;;0.93;0.80;;;17.70;99.90;;;;;;5096705;28;20497;-69
2022/08/19 04:24:18;;;;;;;1.43;1.33;;;17.60;99.90;;;;;;5096664;28;20495;-69
2022/08/19 04:26:44;;;;;;;1.93;1.60;;;17.60;99.90;;;;;;5096590;28;20427;-70
2022/08/19 04:29:21;;;;;;;3.63;2.20;;;17.50;99.90;;;;;;5096307;28;20407;-69
2022/08/19 04:31:49;;;;;;;1.53;1.43;;;17.50;99.90;;;;;;5078445;28;20406;-70
2022/08/19 04:34:21;;;;;;;1.97;1.83;;;17.60;99.90;;;;;;5096504;28;20879;-70
2022/08/19 04:36:47;;;;;;;2.00;1.90;;;17.60;99.90;;;;;;5096439;28;20459;-70
2022/08/19 04:39:18;;;;;;;2.17;1.73;;;17.50;99.90;;;;;;5096280;28;20498;-70
2022/08/19 04:44:31;;;;;;;3.43;3.20;;;17.50;99.90;;;;;;5096314;28;20465;-69
2022/08/19 04:46:57;;;;;;;2.00;1.73;;;17.60;99.90;;;;;;5096202;28;20434;-69
2022/08/19 04:49:23;;;;;;;2.50;1.53;;;17.60;99.90;;;;;;5096271;28;20410;-70
2022/08/19 04:51:51;;;;;;;2.73;1.17;;;17.60;99.90;;;;;;5096330;28;20201;-70
2022/08/19 04:54:17;;;;;;;2.77;2.47;;;17.60;99.90;;;;;;5095950;28;20745;-69
2022/08/19 04:56:43;;;;;;;0.80;0.80;;;17.60;99.90;;;;;;5077714;28;20470;-69
2022/08/19 04:59:10;;;;;;;2.57;2.37;;;17.60;99.90;;;;;;5095907;28;20980;-69
2022/08/19 05:01:36;;;;;;;3.00;2.03;;;17.60;99.90;;;;;;5096074;28;20169;-71
2022/08/19 05:04:04;;;;;;;0.63;0.63;;;17.60;99.90;;;;;;5095977;28;20446;-71
2022/08/19 05:06:33;;;;;;;1.57;1.47;;;17.60;99.90;;;;;;5095874;28;20410;-70
2022/08/19 05:09:01;;;;;;;2.57;2.40;;;17.50;99.90;;;;;;5095490;28;20891;-70
2022/08/19 05:11:30;;;;;;;2.73;2.60;;;17.40;99.90;;;;;;5095755;28;20472;-70
2022/08/19 05:13:56;;;;;;;1.97;1.87;;;17.40;99.90;;;;;;5095768;28;20407;-69
2022/08/19 05:16:23;;;;;;;1.53;1.43;;;17.40;99.90;;;;;;5095698;28;20406;-70
2022/08/19 05:24:21;;;;;;;6.00;2.37;;;17.60;99.90;;;;;;5095697;28;20541;-70
2022/08/19 05:26:48;;;;;;;2.77;2.40;;;17.70;99.90;;;;;;5095563;28;20441;-70
2022/08/19 05:29:16;;;;;;;1.83;1.70;;;17.80;99.90;;;;;;5095207;28;20403;-70
2022/08/19 05:31:43;;;;;;;1.70;1.60;;;17.90;99.90;;;;;;5095412;28;20407;-69
2022/08/19 05:34:09;;;;;;;3.97;2.17;;;17.90;99.90;;;;;;5095282;28;20456;-70
2022/08/19 05:36:41;;;;;;;2.10;2.00;;;18.00;99.90;;;;;;5095208;28;20992;-70
2022/08/19 05:39:13;;;;;;;1.40;1.03;;;17.90;99.90;;;;;;5095135;28;20418;-70
2022/08/19 05:41:47;;;;;;;2.80;2.27;;;18.00;99.90;;;;;;5095316;28;20413;-69
2022/08/19 05:44:14;;;;;;;2.23;2.10;;;18.00;99.90;;;;;;5095478;28;20831;-70
2022/08/19 05:46:42;;;;;;;3.60;1.27;;;18.00;99.90;;;;;;5094936;28;20426;-70
2022/08/19 05:49:08;;;;;;;1.00;1.00;;;18.10;99.90;;;;;;5094717;28;20845;-70
2022/08/19 05:51:36;;;;;;;3.83;1.60;;;18.10;99.90;;;;;;5095270;28;20440;-70
2022/08/19 05:54:04;;;;;;;3.80;2.67;;;18.20;99.90;;;;;;5095059;28;20635;-70
2022/08/19 05:56:30;;;;;;;1.27;1.00;;;18.20;99.90;;;;;;5094771;28;20419;-69
2022/08/19 05:58:56;;;;;;;3.03;2.60;;;18.20;99.90;;;;;;5094752;28;20399;-70
2022/08/19 06:01:22;;;;;;;2.40;2.20;;;18.20;99.90;;;;;;5094775;28;20460;-69
2022/08/19 06:03:48;;;;;;;2.90;1.80;;;18.20;99.90;;;;;;5076470;28;20466;-70
2022/08/19 06:06:16;;;;;;;2.27;2.17;;;18.20;99.90;;;;;;5094772;28;20178;-69
2022/08/19 06:08:49;;;;;;;2.53;2.40;;;18.20;99.90;;;;;;5076259;28;20415;-69
2022/08/19 06:11:18;;;;;;;1.20;1.10;;;18.30;99.90;;;;;;5094756;28;20409;-68
2022/08/19 06:13:47;;;;;;;2.30;2.10;;;18.30;99.90;;;;;;5094525;28;20899;-70
2022/08/19 06:16:19;;;;;;;3.43;1.90;;;18.40;99.90;;;;;;5094490;28;20452;-70
2022/08/19 06:18:44;;;;;;;2.57;2.37;;;18.40;99.90;;;;;;5094382;28;20483;-70
2022/08/19 06:21:10;;;;;;;2.13;1.93;;;18.30;99.90;;;;;;5094069;28;20959;-70
2022/08/19 06:23:36;;;;;;;1.97;1.63;;;18.30;99.90;;;;;;5094439;28;20561;-70
2022/08/19 06:26:01;;;;;;;1.00;0.70;;;18.20;99.90;;;;;;5094298;28;20522;-69
2022/08/19 06:28:27;;;;;;;1.67;1.57;;;18.20;99.90;;;;;;5094050;28;20189;-69
2022/08/19 06:30:53;;;;;;;2.40;1.80;;;18.30;99.90;;;;;;5094299;28;20577;-69
2022/08/19 06:33:18;;;;;;;0.97;0.90;;;18.40;99.90;;;;;;5094328;28;20172;-70
2022/08/19 06:35:44;;;;;;;1.40;1.30;;;18.40;99.90;;;;;;5094267;28;20635;-69
2022/08/19 06:38:10;;;;;;;1.27;1.17;;;18.50;99.90;;;;;;5093746;28;20209;-70
2022/08/19 06:40:37;;;;;;;2.23;2.07;;;18.60;99.90;;;;;;5094278;28;20704;-70
2022/08/19 06:43:03;;;;;;;3.00;2.70;;;18.70;99.90;;;;;;5094010;28;20201;-69
2022/08/19 06:45:30;;;;;;;1.40;1.30;;;18.80;99.90;;;;;;5094060;28;20983;-69
2022/08/19 06:47:55;;;;;;;5.50;2.90;;;18.90;99.90;;;;;;5093686;28;20200;-70
2022/08/19 06:50:22;;;;;;;1.80;1.40;;;18.90;99.90;;;;;;5094137;28;20876;-70
2022/08/19 06:52:48;;;;;;;1.50;1.40;;;19.00;99.90;;;;;;5094043;28;20170;-69
2022/08/19 06:55:15;;;;;;;3.77;1.60;;;19.10;99.90;;;;;;5093801;28;20802;-70
2022/08/19 06:57:42;;;;;;;1.40;1.33;;;19.20;99.90;;;;;;5093783;28;20545;-69
2022/08/19 07:00:12;;;;;;;1.97;1.77;;;19.20;99.90;;;;;;5093750;28;20404;-69
2022/08/19 07:02:39;;;;;;;2.40;2.20;;;19.20;99.90;;;;;;5093675;28;20462;-70
2022/08/19 07:05:05;;;;;;;2.87;2.47;;;19.20;99.90;;;;;;5093874;28;20404;-69
2022/08/19 07:07:31;;;;;;;1.83;1.57;;;19.20;99.90;;;;;;5093618;28;20456;-70
2022/08/19 07:09:57;;;;;;;2.07;1.93;;;19.10;99.90;;;;;;5093518;28;20757;-69
2022/08/19 07:12:22;;;;;;;1.77;1.63;;;19.10;99.90;;;;;;5093833;28;20488;-69
2022/08/19 07:14:49;;;;;;;2.60;2.40;;;19.10;99.90;;;;;;5093624;28;20260;-69
2022/08/19 07:17:14;;;;;;;2.30;2.20;;;19.10;99.90;;;;;;5093681;28;20649;-70
2022/08/19 07:19:41;;;;;;;2.50;2.20;;;19.10;99.90;;;;;;5093609;28;20431;-71
2022/08/19 07:22:08;;;;;;;1.13;1.00;;;19.10;99.90;;;;;;5093754;28;20645;-70
2022/08/19 07:24:34;;;;;;;1.10;1.10;;;19.20;99.90;;;;;;5093468;28;20458;-69
2022/08/19 07:27:03;;;;;;;1.37;1.33;;;19.20;99.90;;;;;;5093567;28;20959;-69
2022/08/19 07:29:32;;;;;;;2.37;2.23;;;19.30;99.90;;;;;;5093419;28;20409;-70
2022/08/19 07:31:59;;;;;;;2.00;1.40;;;19.40;99.90;;;;;;5075248;28;20926;-69
2022/08/19 07:34:27;;;;;;;1.30;1.20;;;19.40;99.90;;;;;;5096247;28;20422;-70
2022/08/19 07:36:54;;;;;;;2.53;2.33;;;19.50;99.90;;;;;;5097661;28;20931;-70
2022/08/19 07:39:24;;;;;;;1.90;1.20;;;19.50;99.90;;;;;;5097550;28;20405;-70
2022/08/19 07:41:50;;;;;;;2.20;1.97;;;19.50;99.90;;;;;;5097528;28;20493;-69
2022/08/19 07:44:17;;;;;;;2.43;2.23;;;19.50;99.90;;;;;;5079292;28;20470;-70
2022/08/19 07:46:46;;;;;;;2.63;2.03;;;19.50;99.90;;;;;;5097383;28;20785;-69
2022/08/19 07:49:18;;;;;;;3.60;3.30;;;19.40;99.90;;;;;;5097030;28;20426;-70
2022/08/19 07:51:47;;;;;;;1.73;1.63;;;19.40;99.90;;;;;;5097390;28;20408;-70
2022/08/19 07:54:13;;;;;;;4.07;3.23;;;19.40;99.90;;;;;;5097341;28;20876;-69
2022/08/19 07:56:39;;;;;;;3.47;3.07;;;19.40;99.90;;;;;;5097161;28;20436;-69
2022/08/19 07:59:05;;;;;;;2.40;2.20;;;19.50;99.90;;;;;;5096944;28;20414;-70
2022/08/19 08:01:31;;;;;;;2.97;2.40;;;19.60;99.90;;;;;;5096975;28;20180;-70
2022/08/19 08:09:35;;;;;;;3.60;3.30;;;19.60;99.90;;;;;;5097010;28;20452;-71
2022/08/19 08:12:10;;;;;;;2.77;2.57;;;19.50;99.90;;;;;;5096726;28;20411;-69
2022/08/19 08:14:47;;;;;;;4.60;4.20;;;19.40;99.90;;;;;;5097030;28;20778;-70
2022/08/19 08:17:14;;;;;;;2.47;2.07;;;19.40;99.90;;;;;;5096968;28;20469;-69
2022/08/19 08:19:41;;;;;;;2.67;2.37;;;19.40;99.90;;;;;;5096731;28;20770;-70
2022/08/19 08:23:21;;;;;;;3.07;2.50;;;19.40;99.90;;;;;;5096935;28;20857;-69
2022/08/19 08:24:54;;;;;;;3.30;3.00;;;19.30;99.90;;;;;;5096481;28;20909;-69
2022/08/19 08:27:20;;;;;;;5.83;3.97;;;19.20;99.90;;;;;;5096833;28;20458;-70
2022/08/19 08:29:45;;;;;;;1.97;1.80;;;19.20;99.90;;;;;;5096484;28;20478;-69
2022/08/19 08:32:11;;;;;;;5.10;3.27;;;19.20;99.90;;;;;;5096698;28;20648;-69
2022/08/19 08:34:36;;;;;;;3.50;2.50;;;19.10;99.90;;;;;;5096656;28;20178;-69
2022/08/19 08:37:03;;;;;;;3.80;3.33;;;19.10;99.90;;;;;;5096493;28;20188;-69
2022/08/19 08:39:29;;;;;;;2.70;2.50;;;19.10;99.90;;;;;;5096220;28;20167;-70
2022/08/19 08:42:37;;;;;;;5.50;4.70;;;19.10;99.90;;;;;;5096382;28;20848;-69
2022/08/19 08:45:14;;;;;;;2.90;2.70;;;19.10;99.90;;;;;;5095944;28;20182;-69
2022/08/19 08:47:46;;;;;;;1.90;1.80;;;19.20;99.90;;;;;;5096411;28;20519;-71
2022/08/19 08:50:25;;;;;;;3.20;2.90;;;19.20;99.90;;;;;;5096216;28;20534;-69
2022/08/19 08:52:55;;;;;;;3.00;2.40;;;19.20;99.90;;;;;;5096336;28;20901;-69
2022/08/19 08:55:26;;;;;;;3.17;2.13;;;19.20;99.90;;;;;;5096333;28;20402;-69
2022/08/19 08:58:00;;;;;;;4.57;4.10;;;19.20;99.90;;;;;;5095751;28;20795;-69
2022/08/19 09:00:42;;;;;;;2.80;2.60;;;19.10;99.90;;;;;;5096002;28;20399;-70
2022/08/19 09:03:29;;;;;;;1.77;1.67;;;19.00;99.90;;;;;;5095861;28;20602;-69
2022/08/19 09:05:58;;;;;;;2.00;1.70;;;18.90;99.90;;;;;;5096115;28;20398;-70
2022/08/19 09:08:29;;;;;;;3.60;2.37;;;18.80;99.90;;;;;;5095572;28;20421;-70
2022/08/19 09:10:57;;;;;;;2.20;2.03;;;18.80;99.90;;;;;;5095819;28;20389;-70
2022/08/19 09:14:03;;;;;;;4.93;3.07;;;18.70;99.90;;;;;;5095773;28;20410;-70
2022/08/19 09:16:30;;;;;;;4.00;2.07;;;18.70;99.90;;;;;;5092659;28;20412;-70
2022/08/19 09:19:00;;;;;;;2.03;1.93;;;18.60;99.90;;;;;;5095582;28;20428;-70
2022/08/19 09:21:27;;;;;;;2.90;2.70;;;18.70;99.90;;;;;;5077721;28;20897;-69
2022/08/19 09:23:53;;;;;;;3.43;2.80;;;18.60;99.90;;;;;;5095599;28;20447;-70
2022/08/19 09:26:22;;;;;;;5.13;2.27;;;18.50;99.90;;;;;;5095511;28;20431;-69
2022/08/19 09:28:52;;;;;;;2.80;2.53;;;18.30;99.90;;;;;;5095257;28;20399;-70
2022/08/19 09:31:21;;;;;;;2.00;1.70;;;18.20;99.90;;;;;;5095855;28;20400;-70
2022/08/19 09:33:47;;;;;;;1.40;1.33;;;18.20;99.90;;;;;;5095376;28;20397;-69
2022/08/19 09:36:15;;;;;;;2.30;1.60;;;18.20;99.90;;;;;;5095334;28;20399;-69
2022/08/19 09:38:41;;;;;;;3.77;3.40;;;18.20;99.90;;;;;;5094987;28;20429;-70
2022/08/19 09:41:13;;;;;;;4.07;2.73;;;18.30;99.90;;;;;;5095306;28;20453;-70
2022/08/19 09:43:39;;;;;;;2.00;1.27;;;18.40;99.90;;;;;;5095232;28;20457;-70
2022/08/19 09:46:08;;;;;;;1.40;1.30;;;18.40;99.90;;;;;;5095443;28;20407;-70
2022/08/19 09:48:36;;;;;;;3.13;2.90;;;18.50;99.90;;;;;;5094821;28;20446;-70
2022/08/19 09:51:08;;;;;;;2.40;2.30;;;18.60;99.90;;;;;;5094978;28;20401;-70
2022/08/19 09:53:35;;;;;;;2.87;2.57;;;18.60;99.90;;;;;;5095067;28;20428;-70
2022/08/19 09:56:02;;;;;;;3.00;2.80;;;18.70;99.90;;;;;;5094026;28;20404;-70
2022/08/19 09:58:29;;;;;;;3.47;2.47;;;18.70;99.90;;;;;;5094525;28;20448;-69
2022/08/19 10:00:56;;;;;;;5.50;2.67;;;18.70;99.90;;;;;;5094749;28;20911;-69
2022/08/19 10:03:22;;;;;;;1.07;0.97;;;18.70;99.90;;;;;;5094650;28;20459;-69
2022/08/19 10:05:49;;;;;;;3.20;2.97;;;18.70;99.90;;;;;;5094693;28;20395;-70
2022/08/19 10:08:20;;;;;;;3.60;2.97;;;18.80;99.90;;;;;;5094443;28;20829;-70
2022/08/19 10:10:46;;;;;;;2.80;2.60;;;18.90;99.90;;;;;;5093964;28;20460;-69
2022/08/19 10:13:12;;;;;;;2.07;1.90;;;19.00;99.90;;;;;;5094755;28;20405;-70
2022/08/19 10:15:41;;;;;;;1.77;1.67;;;19.00;99.90;;;;;;5094597;28;20171;-70
2022/08/19 10:18:07;;;;;;;2.20;2.00;;;19.00;99.90;;;;;;5094233;28;20429;-70
2022/08/19 10:20:35;;;;;;;1.70;1.60;;;19.00;99.90;;;;;;5094346;28;20403;-70
2022/08/19 10:23:01;;;;;;;2.57;2.37;;;18.90;99.90;;;;;;5094497;28;20445;-69
2022/08/19 10:25:27;;;;;;;1.27;1.13;;;18.80;99.90;;;;;;5094517;28;20400;-69
2022/08/19 10:27:53;;;;;;;2.70;2.50;;;18.80;99.90;;;;;;5094183;28;20520;-70
2022/08/19 10:30:20;;;;;;;3.30;3.03;;;18.80;99.90;;;;;;5094364;28;20237;-70
2022/08/19 10:32:45;;;;;;;2.30;2.10;;;18.70;99.90;;;;;;5094402;28;20403;-70
2022/08/19 10:35:12;;;;;;;1.77;1.67;;;18.80;99.90;;;;;;5094367;28;20761;-69
2022/08/19 10:37:39;;;;;;;1.87;1.77;;;18.80;99.90;;;;;;5094005;28;20890;-70
2022/08/19 10:40:07;;;;;;;3.30;2.40;;;18.90;99.90;;;;;;5094016;28;20398;-69
2022/08/19 10:42:37;;;;;;;3.40;1.27;;;19.00;99.90;;;;;;5093928;28;20734;-69
2022/08/19 10:45:05;;;;;;;3.30;2.77;;;19.10;99.90;;;;;;5094045;28;20916;-70
2022/08/19 10:47:32;;;;;;;2.73;2.40;;;19.30;99.90;;;;;;5093870;28;20421;-70
2022/08/19 10:52:45;;;;;;;2.67;2.47;;;19.50;99.90;;;;;;5094170;28;20409;-69
2022/08/19 10:57:57;;;;;;;0.87;0.87;;;19.50;99.90;;;;;;5093664;28;20458;-70
2022/08/19 11:00:24;;;;;;;3.70;2.73;;;19.50;99.90;;;;;;5093852;28;20416;-70
2022/08/19 11:02:50;;;;;;;3.10;2.87;;;19.60;99.90;;;;;;5093608;28;21013;-70
2022/08/19 11:05:16;;;;;;;1.83;1.60;;;19.60;99.90;;;;;;5093713;28;20955;-70
2022/08/19 11:07:44;;;;;;;2.50;2.30;;;19.70;99.90;;;;;;5093244;28;20474;-70
2022/08/19 11:10:12;;;;;;;5.00;4.17;;;19.70;99.90;;;;;;5075677;28;20414;-70
2022/08/19 11:12:39;;;;;;;2.93;2.73;;;19.70;99.90;;;;;;5093844;28;20406;-69
2022/08/19 11:15:08;;;;;;;3.13;2.67;;;19.70;99.90;;;;;;5093712;28;20397;-70
2022/08/19 11:17:35;;;;;;;3.83;3.20;;;19.60;99.90;;;;;;5093814;28;20418;-69
2022/08/19 11:20:04;;;;;;;2.30;2.20;;;19.80;99.90;;;;;;5093755;28;20404;-69
2022/08/19 11:22:30;;;;;;;2.90;2.70;;;19.90;99.90;;;;;;5093662;28;20498;-69
2022/08/19 11:24:56;;;;;;;2.00;1.90;;;20.00;99.90;;;;;;5093644;28;20849;-69
2022/08/19 11:27:21;;;;;;;2.60;1.83;;;19.90;99.90;;;;;;5093581;28;20683;-69
2022/08/19 11:29:47;;;;;;;3.27;2.97;;;19.90;99.90;;;;;;5093289;28;20632;-70
2022/08/19 11:32:13;;;;;;;2.90;2.80;;;19.90;99.90;;;;;;5093439;28;20580;-70
2022/08/19 11:34:38;;;;;;;2.10;1.90;;;19.90;99.90;;;;;;5093486;28;20186;-70
2022/08/19 11:37:05;;;;;;;2.47;2.27;;;19.90;99.90;;;;;;5093339;28;20196;-70
2022/08/19 11:39:32;;;;;;;4.07;3.77;;;19.90;99.90;;;;;;5093204;28;20781;-70
2022/08/19 11:41:59;;;;;;;1.60;1.37;;;20.00;99.90;;;;;;5093511;28;20411;-70
2022/08/19 11:44:25;;;;;;;2.50;2.40;;;20.20;99.90;;;;;;5093382;28;20812;-70
2022/08/19 11:46:52;;;;;;;2.60;1.60;;;20.40;99.90;;;;;;5093250;28;20433;-70
2022/08/19 11:49:19;;;;;;;3.70;3.50;;;20.40;99.90;;;;;;5093235;28;20484;-69
2022/08/19 11:51:46;;;;;;;3.97;3.67;;;20.40;99.90;;;;;;5093312;28;20405;-69
2022/08/19 11:54:13;;;;;;;3.07;2.57;;;20.40;99.90;;;;;;5093483;28;20415;-69
2022/08/19 11:56:39;;;;;;;2.10;2.00;;;20.40;99.90;;;;;;5093226;28;20419;-70
2022/08/19 11:59:05;;;;;;;2.87;2.40;;;20.60;99.90;;;;;;5092977;28;20466;-69
2022/08/19 12:01:31;;;;;;;2.50;2.30;;;20.80;99.90;;;;;;5093164;28;20412;-70
2022/08/19 12:03:57;;;;;;;2.63;2.53;;;20.80;99.90;;;;;;5093058;28;20232;-70
2022/08/19 12:06:29;;;;;;;4.67;4.40;;;20.90;99.90;;;;;;5093260;28;20911;-70
2022/08/19 12:08:57;;;;;;;2.50;2.33;;;21.00;99.90;;;;;;5093090;28;20400;-70
2022/08/19 12:11:23;;;;;;;2.93;2.57;;;21.00;99.90;;;;;;5093115;28;20470;-69
2022/08/19 12:13:49;;;;;;;2.73;2.23;;;20.80;99.90;;;;;;5093524;28;20508;-70
2022/08/19 12:16:18;;;;;;;2.60;2.40;;;20.70;99.90;;;;;;5093288;28;20911;-69
2022/08/19 12:18:46;;;;;;;2.20;1.90;;;20.80;99.90;;;;;;5092939;28;20822;-70
2022/08/19 12:21:15;;;;;;;1.83;1.30;;;20.70;99.90;;;;;;5096692;28;20903;-70
2022/08/19 12:23:44;;;;;;;1.23;1.13;;;20.80;99.90;;;;;;5078562;28;20446;-70
2022/08/19 12:26:11;;;;;;;2.87;2.67;;;20.80;99.90;;;;;;5096738;28;20490;-70
2022/08/19 12:28:37;;;;;;;3.27;2.97;;;20.70;99.90;;;;;;5096398;28;20790;-70
2022/08/19 12:31:02;;;;;;;3.07;1.97;;;20.60;99.90;;;;;;5096592;28;20412;-69
2022/08/19 12:33:28;;;;;;;2.20;2.00;;;20.80;99.90;;;;;;5096832;28;20403;-69
2022/08/19 12:35:54;;;;;;;2.17;2.00;;;20.90;99.90;;;;;;5096652;28;20179;-71
2022/08/19 12:38:23;;;;;;;1.90;1.70;;;21.10;99.90;;;;;;5096162;28;20193;-69
2022/08/19 12:40:51;;;;;;;2.00;1.90;;;21.20;99.90;;;;;;5096504;28;20413;-70
2022/08/19 12:43:17;;;;;;;3.23;2.93;;;21.50;99.90;;;;;;5096455;28;20850;-70
2022/08/19 12:45:44;;;;;;;1.40;1.30;;;21.80;99.90;;;;;;5096501;28;20423;-69
2022/08/19 12:48:10;;;;;;;2.10;2.00;;;22.10;99.90;;;;;;5096059;28;20404;-70
2022/08/19 12:50:38;;;;;;;2.13;1.93;;;22.10;99.90;;;;;;5096309;28;20480;-71
2022/08/19 12:53:04;;;;;;;2.43;2.30;;;22.10;99.90;;;;;;5096289;28;20647;-69
2022/08/19 12:55:30;;;;;;;3.40;2.20;;;22.30;99.90;;;;;;5077982;28;20414;-70
2022/08/19 12:57:56;;;;;;;2.40;2.23;;;22.50;99.90;;;;;;5095732;28;20200;-69
2022/08/19 13:00:22;;;;;;;3.57;2.57;;;22.50;99.10;;;;;;5096126;28;20177;-70
2022/08/19 13:02:51;;;;;;;1.73;1.63;;;22.50;99.20;;;;;;5095826;28;20432;-69
2022/08/19 13:05:22;;;;;;;2.47;2.23;;;22.40;97.30;;;;;;5095924;28;20401;-70
2022/08/19 13:07:50;;;;;;;1.90;1.80;;;22.10;97.00;;;;;;5095638;28;20417;-70
2022/08/19 13:10:19;;;;;;;2.97;2.40;;;22.20;97.70;;;;;;5095806;28;20479;-70